Green Bay, Wisconsin
Current Conditions -  °F | °C
As of 9:53 AM on Saturday 25 Oct 2014 (Local Time) from KGRB Reporting Station
Clear Clear  
Wind Chill: 14°   Ceiling: Unl
Heat Index: 14°   Visibility: 10mi
Dew Point:   Wind: 16mph
Humidity: 58%   Direction: 280°W
Pressure: 29.85"   Gusts: NA
Location:  44.51°N, 88.01°W
Report Text: KGRB 251453Z 28014KT 10SM CLR 14/06 A2985 RMK AO2 SLP109 T01440061 51008
Loading
Personal Weather Stations






























Interactive Weather Map
Tropical Storm Tracking
New forecast layout! Learn more

10-Day Weather Forecast

Advertisements
Track Severe Weather on mobile